sensor_id;sensor_type;location;lat;lon;timestamp;temperature;humidity
3406;DHT22;10008;48.682;9.016;2022-09-01T00:01:34;15.20;99.90
3406;DHT22;10008;48.682;9.016;2022-09-01T00:04:02;15.20;99.90
3406;DHT22;10008;48.682;9.016;2022-09-01T00:06:30;15.20;99.90
3406;DHT22;10008;48.682;9.016;2022-09-01T00:08:58;15.20;99.90
3406;DHT22;10008;48.682;9.016;2022-09-01T00:11:26;15.30;99.90
3406;DHT22;10008;48.682;9.016;2022-09-01T00:13:53;15.30;99.90
3406;DHT22;10008;48.682;9.016;2022-09-01T00:16:19;15.30;99.90
3406;DHT22;10008;48.682;9.016;2022-09-01T00:18:48;15.30;99.90
3406;DHT22;10008;48.682;9.016;2022-09-01T00:21:16;15.30;99.90
3406;DHT22;10008;48.682;9.016;2022-09-01T00:23:42;15.30;99.90
3406;DHT22;10008;48.682;9.016;2022-09-01T00:26:08;15.30;99.90
3406;DHT22;10008;48.682;9.016;2022-09-01T00:28:35;15.20;99.90
3406;DHT22;10008;48.682;9.016;2022-09-01T00:31:02;15.30;99.90
3406;DHT22;10008;48.682;9.016;2022-09-01T00:33:29;15.30;99.90
3406;DHT22;10008;48.682;9.016;2022-09-01T00:35:55;15.30;99.90
3406;DHT22;10008;48.682;9.016;2022-09-01T00:38:20;15.10;99.90
3406;DHT22;10008;48.682;9.016;2022-09-01T00:40:46;15.00;99.90
3406;DHT22;10008;48.682;9.016;2022-09-01T00:43:46;15.00;99.90
3406;DHT22;10008;48.682;9.016;2022-09-01T00:48:43;14.90;99.90
3406;DHT22;10008;48.682;9.016;2022-09-01T00:51:10;15.00;99.90
3406;DHT22;10008;48.682;9.016;2022-09-01T00:53:38;15.00;99.90
3406;DHT22;10008;48.682;9.016;2022-09-01T00:56:06;15.00;99.90
3406;DHT22;10008;48.682;9.016;2022-09-01T00:58:33;15.00;99.90
3406;DHT22;10008;48.682;9.016;2022-09-01T01:01:00;15.10;99.90
3406;DHT22;10008;48.682;9.016;2022-09-01T01:03:26;15.10;99.90
3406;DHT22;10008;48.682;9.016;2022-09-01T01:05:57;15.10;99.90
3406;DHT22;10008;48.682;9.016;2022-09-01T01:08:32;15.10;99.90
3406;DHT22;10008;48.682;9.016;2022-09-01T01:11:01;15.10;99.90
3406;DHT22;10008;48.682;9.016;2022-09-01T01:13:27;15.10;99.90
3406;DHT22;10008;48.682;9.016;2022-09-01T01:15:56;15.20;99.90
3406;DHT22;10008;48.682;9.016;2022-09-01T01:18:24;15.20;99.90
3406;DHT22;10008;48.682;9.016;2022-09-01T01:21:04;15.20;99.90
3406;DHT22;10008;48.682;9.016;2022-09-01T01:23:58;15.30;99.90
3406;DHT22;10008;48.682;9.016;2022-09-01T01:26:26;15.30;99.90
3406;DHT22;10008;48.682;9.016;2022-09-01T01:28:53;15.20;99.90
3406;DHT22;10008;48.682;9.016;2022-09-01T01:31:20;15.20;99.90
3406;DHT22;10008;48.682;9.016;2022-09-01T01:33:53;15.20;99.90
3406;DHT22;10008;48.682;9.016;2022-09-01T01:36:23;15.20;99.90
3406;DHT22;10008;48.682;9.016;2022-09-01T01:39:00;15.20;99.90
3406;DHT22;10008;48.682;9.016;2022-09-01T01:41:30;15.20;99.90
3406;DHT22;10008;48.682;9.016;2022-09-01T01:43:58;15.10;99.90
3406;DHT22;10008;48.682;9.016;2022-09-01T01:46:26;15.20;99.90
3406;DHT22;10008;48.682;9.016;2022-09-01T01:48:52;15.10;99.90
3406;DHT22;10008;48.682;9.016;2022-09-01T01:51:20;15.00;99.90
3406;DHT22;10008;48.682;9.016;2022-09-01T01:53:49;15.00;99.90
3406;DHT22;10008;48.682;9.016;2022-09-01T01:56:18;14.90;99.90
3406;DHT22;10008;48.682;9.016;2022-09-01T01:58:45;14.90;99.90
3406;DHT22;10008;48.682;9.016;2022-09-01T02:01:11;15.00;99.90
3406;DHT22;10008;48.682;9.016;2022-09-01T02:03:38;15.00;99.90
3406;DHT22;10008;48.682;9.016;2022-09-01T02:06:08;15.00;99.90
3406;DHT22;10008;48.682;9.016;2022-09-01T02:08:35;14.90;99.90
3406;DHT22;10008;48.682;9.016;2022-09-01T02:11:04;14.90;99.90
3406;DHT22;10008;48.682;9.016;2022-09-01T02:13:30;14.80;99.90
3406;DHT22;10008;48.682;9.016;2022-09-01T02:16:04;14.70;99.90
3406;DHT22;10008;48.682;9.016;2022-09-01T02:18:36;14.70;99.90
3406;DHT22;10008;48.682;9.016;2022-09-01T02:21:04;14.70;99.90
3406;DHT22;10008;48.682;9.016;2022-09-01T02:23:39;14.60;99.90
3406;DHT22;10008;48.682;9.016;2022-09-01T02:26:07;14.60;99.90
3406;DHT22;10008;48.682;9.016;2022-09-01T02:28:37;14.60;99.90
3406;DHT22;10008;48.682;9.016;2022-09-01T02:31:08;14.60;99.90
3406;DHT22;10008;48.682;9.016;2022-09-01T02:33:35;14.60;99.90
3406;DHT22;10008;48.682;9.016;2022-09-01T02:36:12;14.50;99.90
3406;DHT22;10008;48.682;9.016;2022-09-01T02:38:39;14.50;99.90
3406;DHT22;10008;48.682;9.016;2022-09-01T02:41:06;14.50;99.90
3406;DHT22;10008;48.682;9.016;2022-09-01T02:43:32;14.50;99.90
3406;DHT22;10008;48.682;9.016;2022-09-01T02:46:01;14.60;99.90
3406;DHT22;10008;48.682;9.016;2022-09-01T02:48:35;14.70;99.90
3406;DHT22;10008;48.682;9.016;2022-09-01T02:51:05;14.70;99.90
3406;DHT22;10008;48.682;9.016;2022-09-01T02:53:32;14.80;99.90
3406;DHT22;10008;48.682;9.016;2022-09-01T02:56:04;14.80;99.90
3406;DHT22;10008;48.682;9.016;2022-09-01T02:58:34;14.90;99.90
3406;DHT22;10008;48.682;9.016;2022-09-01T03:01:14;14.90;99.90
3406;DHT22;10008;48.682;9.016;2022-09-01T03:03:47;14.80;99.90
3406;DHT22;10008;48.682;9.016;2022-09-01T03:06:13;14.80;99.90
3406;DHT22;10008;48.682;9.016;2022-09-01T03:08:39;14.80;99.90
3406;DHT22;10008;48.682;9.016;2022-09-01T03:11:06;14.90;99.90
3406;DHT22;10008;48.682;9.016;2022-09-01T03:13:37;14.80;99.90
3406;DHT22;10008;48.682;9.016;2022-09-01T03:16:05;14.90;99.90
3406;DHT22;10008;48.682;9.016;2022-09-01T03:18:32;14.90;99.90
3406;DHT22;10008;48.682;9.016;2022-09-01T03:20:59;14.90;99.90
3406;DHT22;10008;48.682;9.016;2022-09-01T03:23:28;14.80;99.90
3406;DHT22;10008;48.682;9.016;2022-09-01T03:25:54;14.80;99.90
3406;DHT22;10008;48.682;9.016;2022-09-01T03:28:20;14.90;99.90
3406;DHT22;10008;48.682;9.016;2022-09-01T03:30:50;14.90;99.90
3406;DHT22;10008;48.682;9.016;2022-09-01T03:33:18;14.90;99.90
3406;DHT22;10008;48.682;9.016;2022-09-01T03:35:45;14.90;99.90
3406;DHT22;10008;48.682;9.016;2022-09-01T03:38:12;14.90;99.90
3406;DHT22;10008;48.682;9.016;2022-09-01T03:40:45;14.80;99.90
3406;DHT22;10008;48.682;9.016;2022-09-01T03:43:12;14.80;99.90
3406;DHT22;10008;48.682;9.016;2022-09-01T03:45:41;14.80;99.90
3406;DHT22;10008;48.682;9.016;2022-09-01T03:48:08;14.80;99.90
3406;DHT22;10008;48.682;9.016;2022-09-01T03:50:37;14.70;99.90
3406;DHT22;10008;48.682;9.016;2022-09-01T03:53:06;14.70;99.90
3406;DHT22;10008;48.682;9.016;2022-09-01T03:55:34;14.80;99.90
3406;DHT22;10008;48.682;9.016;2022-09-01T03:58:03;14.70;99.90
3406;DHT22;10008;48.682;9.016;2022-09-01T04:00:39;14.70;99.90
3406;DHT22;10008;48.682;9.016;2022-09-01T04:03:07;14.70;99.90
3406;DHT22;10008;48.682;9.016;2022-09-01T04:05:35;14.70;99.90
3406;DHT22;10008;48.682;9.016;2022-09-01T04:08:05;14.60;99.90
3406;DHT22;10008;48.682;9.016;2022-09-01T04:10:39;14.50;99.90
3406;DHT22;10008;48.682;9.016;2022-09-01T04:13:08;14.40;99.90
3406;DHT22;10008;48.682;9.016;2022-09-01T04:15:36;14.20;99.90
3406;DHT22;10008;48.682;9.016;2022-09-01T04:18:03;14.10;99.90
3406;DHT22;10008;48.682;9.016;2022-09-01T04:20:36;14.00;99.90
3406;DHT22;10008;48.682;9.016;2022-09-01T04:23:33;13.80;99.90
3406;DHT22;10008;48.682;9.016;2022-09-01T04:26:07;13.80;99.90
3406;DHT22;10008;48.682;9.016;2022-09-01T04:28:43;13.80;99.90
3406;DHT22;10008;48.682;9.016;2022-09-01T04:31:18;13.80;99.90
3406;DHT22;10008;48.682;9.016;2022-09-01T04:33:48;13.80;99.90
3406;DHT22;10008;48.682;9.016;2022-09-01T04:36:21;13.90;99.90
3406;DHT22;10008;48.682;9.016;2022-09-01T04:38:51;13.90;99.90
3406;DHT22;10008;48.682;9.016;2022-09-01T04:41:23;13.90;99.90
3406;DHT22;10008;48.682;9.016;2022-09-01T04:43:51;14.00;99.90
3406;DHT22;10008;48.682;9.016;2022-09-01T04:46:22;14.10;99.90
3406;DHT22;10008;48.682;9.016;2022-09-01T04:48:51;14.10;99.90
3406;DHT22;10008;48.682;9.016;2022-09-01T04:51:17;14.10;99.90
3406;DHT22;10008;48.682;9.016;2022-09-01T04:53:53;14.10;99.90
3406;DHT22;10008;48.682;9.016;2022-09-01T04:56:20;14.20;99.90
3406;DHT22;10008;48.682;9.016;2022-09-01T04:59:00;14.30;99.90
3406;DHT22;10008;48.682;9.016;2022-09-01T05:01:32;14.40;99.90
3406;DHT22;10008;48.682;9.016;2022-09-01T05:04:09;14.40;99.90
3406;DHT22;10008;48.682;9.016;2022-09-01T05:06:40;14.60;99.90
3406;DHT22;10008;48.682;9.016;2022-09-01T05:09:09;14.70;99.90
3406;DHT22;10008;48.682;9.016;2022-09-01T05:11:58;14.60;99.90
3406;DHT22;10008;48.682;9.016;2022-09-01T05:14:37;14.60;99.90
3406;DHT22;10008;48.682;9.016;2022-09-01T05:17:04;14.60;99.90
3406;DHT22;10008;48.682;9.016;2022-09-01T05:19:36;14.50;99.90
3406;DHT22;10008;48.682;9.016;2022-09-01T05:22:03;14.40;99.90
3406;DHT22;10008;48.682;9.016;2022-09-01T05:24:31;14.40;99.90
3406;DHT22;10008;48.682;9.016;2022-09-01T05:27:06;14.60;99.90
3406;DHT22;10008;48.682;9.016;2022-09-01T05:29:36;14.80;99.90
3406;DHT22;10008;48.682;9.016;2022-09-01T05:32:07;14.90;99.90
3406;DHT22;10008;48.682;9.016;2022-09-01T05:34:38;14.90;99.90
3406;DHT22;10008;48.682;9.016;2022-09-01T05:37:06;15.00;99.90
3406;DHT22;10008;48.682;9.016;2022-09-01T05:39:36;15.20;99.90
3406;DHT22;10008;48.682;9.016;2022-09-01T05:42:03;15.60;99.90
3406;DHT22;10008;48.682;9.016;2022-09-01T05:44:37;16.00;99.90
3406;DHT22;10008;48.682;9.016;2022-09-01T05:47:04;16.30;99.90
3406;DHT22;10008;48.682;9.016;2022-09-01T05:49:30;16.50;99.90
3406;DHT22;10008;48.682;9.016;2022-09-01T05:51:58;16.60;99.90
3406;DHT22;10008;48.682;9.016;2022-09-01T05:54:26;16.80;99.90
3406;DHT22;10008;48.682;9.016;2022-09-01T05:56:55;17.00;99.90
3406;DHT22;10008;48.682;9.016;2022-09-01T05:59:26;17.10;99.90
3406;DHT22;10008;48.682;9.016;2022-09-01T06:02:04;17.10;99.90
3406;DHT22;10008;48.682;9.016;2022-09-01T06:04:34;17.20;99.90
3406;DHT22;10008;48.682;9.016;2022-09-01T06:07:02;17.30;99.90
3406;DHT22;10008;48.682;9.016;2022-09-01T06:09:36;17.50;99.90
3406;DHT22;10008;48.682;9.016;2022-09-01T06:12:03;17.80;99.90
3406;DHT22;10008;48.682;9.016;2022-09-01T06:14:28;18.10;99.90
3406;DHT22;10008;48.682;9.016;2022-09-01T06:16:54;18.40;99.90
3406;DHT22;10008;48.682;9.016;2022-09-01T06:19:20;18.60;99.90
3406;DHT22;10008;48.682;9.016;2022-09-01T06:21:47;18.70;99.90
3406;DHT22;10008;48.682;9.016;2022-09-01T06:24:13;18.80;99.90
3406;DHT22;10008;48.682;9.016;2022-09-01T06:26:40;18.80;99.90
3406;DHT22;10008;48.682;9.016;2022-09-01T06:29:09;18.70;99.90
3406;DHT22;10008;48.682;9.016;2022-09-01T06:31:44;18.40;99.90
3406;DHT22;10008;48.682;9.016;2022-09-01T06:34:12;18.20;99.90
3406;DHT22;10008;48.682;9.016;2022-09-01T06:36:44;18.00;99.90
3406;DHT22;10008;48.682;9.016;2022-09-01T06:39:13;17.80;99.90
3406;DHT22;10008;48.682;9.016;2022-09-01T06:41:50;17.90;99.90
3406;DHT22;10008;48.682;9.016;2022-09-01T06:44:19;18.20;99.90
3406;DHT22;10008;48.682;9.016;2022-09-01T06:46:52;17.90;99.90
3406;DHT22;10008;48.682;9.016;2022-09-01T06:49:20;18.50;99.90
3406;DHT22;10008;48.682;9.016;2022-09-01T06:51:49;18.70;99.90
3406;DHT22;10008;48.682;9.016;2022-09-01T06:54:22;18.90;99.90
3406;DHT22;10008;48.682;9.016;2022-09-01T06:56:48;19.30;99.90
3406;DHT22;10008;48.682;9.016;2022-09-01T06:59:14;19.80;99.90
3406;DHT22;10008;48.682;9.016;2022-09-01T07:01:43;20.00;99.90
3406;DHT22;10008;48.682;9.016;2022-09-01T07:04:10;20.30;99.90
3406;DHT22;10008;48.682;9.016;2022-09-01T07:06:40;20.50;99.90
3406;DHT22;10008;48.682;9.016;2022-09-01T07:09:15;20.50;99.90
3406;DHT22;10008;48.682;9.016;2022-09-01T07:11:43;20.60;99.90
3406;DHT22;10008;48.682;9.016;2022-09-01T07:14:09;20.20;99.90
3406;DHT22;10008;48.682;9.016;2022-09-01T07:16:37;19.90;99.90
3406;DHT22;10008;48.682;9.016;2022-09-01T07:19:06;19.60;99.90
3406;DHT22;10008;48.682;9.016;2022-09-01T07:22:00;19.50;99.90
3406;DHT22;10008;48.682;9.016;2022-09-01T07:24:26;20.00;99.90
3406;DHT22;10008;48.682;9.016;2022-09-01T07:27:19;20.50;99.90
3406;DHT22;10008;48.682;9.016;2022-09-01T07:29:50;21.10;99.90
3406;DHT22;10008;48.682;9.016;2022-09-01T07:32:18;21.40;99.90
3406;DHT22;10008;48.682;9.016;2022-09-01T07:34:45;21.80;99.90
3406;DHT22;10008;48.682;9.016;2022-09-01T07:37:11;21.80;99.90
3406;DHT22;10008;48.682;9.016;2022-09-01T07:39:38;21.80;99.90
3406;DHT22;10008;48.682;9.016;2022-09-01T07:42:54;21.40;99.90
3406;DHT22;10008;48.682;9.016;2022-09-01T07:45:43;20.80;99.90
3406;DHT22;10008;48.682;9.016;2022-09-01T07:48:15;20.40;99.90
3406;DHT22;10008;48.682;9.016;2022-09-01T07:50:47;20.10;99.90
3406;DHT22;10008;48.682;9.016;2022-09-01T07:53:18;19.60;99.90
3406;DHT22;10008;48.682;9.016;2022-09-01T07:55:49;19.30;99.90
3406;DHT22;10008;48.682;9.016;2022-09-01T07:58:17;19.20;99.90
3406;DHT22;10008;48.682;9.016;2022-09-01T08:00:45;19.10;99.90
3406;DHT22;10008;48.682;9.016;2022-09-01T08:03:16;19.00;99.90
3406;DHT22;10008;48.682;9.016;2022-09-01T08:05:42;18.70;99.90
3406;DHT22;10008;48.682;9.016;2022-09-01T08:08:08;18.60;99.90
3406;DHT22;10008;48.682;9.016;2022-09-01T08:10:38;18.50;99.90
3406;DHT22;10008;48.682;9.016;2022-09-01T08:13:05;18.30;99.90
3406;DHT22;10008;48.682;9.016;2022-09-01T08:15:31;20.00;99.90
3406;DHT22;10008;48.682;9.016;2022-09-01T08:17:57;18.40;99.90
3406;DHT22;10008;48.682;9.016;2022-09-01T08:20:26;18.50;99.90
3406;DHT22;10008;48.682;9.016;2022-09-01T08:23:17;18.50;99.90
3406;DHT22;10008;48.682;9.016;2022-09-01T08:25:46;18.70;99.90
3406;DHT22;10008;48.682;9.016;2022-09-01T08:28:14;18.70;99.90
3406;DHT22;10008;48.682;9.016;2022-09-01T08:30:43;18.70;99.90
3406;DHT22;10008;48.682;9.016;2022-09-01T08:33:08;18.90;99.90
3406;DHT22;10008;48.682;9.016;2022-09-01T08:35:40;18.90;99.90
3406;DHT22;10008;48.682;9.016;2022-09-01T08:38:07;18.90;99.90
3406;DHT22;10008;48.682;9.016;2022-09-01T08:40:33;18.90;99.90
3406;DHT22;10008;48.682;9.016;2022-09-01T08:43:30;18.80;99.90
3406;DHT22;10008;48.682;9.016;2022-09-01T08:46:28;18.80;99.90
3406;DHT22;10008;48.682;9.016;2022-09-01T08:48:55;18.80;99.90
3406;DHT22;10008;48.682;9.016;2022-09-01T08:56:56;19.00;99.90
3406;DHT22;10008;48.682;9.016;2022-09-01T08:59:42;19.20;99.90
3406;DHT22;10008;48.682;9.016;2022-09-01T09:05:32;19.30;99.90
3406;DHT22;10008;48.682;9.016;2022-09-01T09:08:28;19.40;99.90
3406;DHT22;10008;48.682;9.016;2022-09-01T09:11:05;19.50;99.90
3406;DHT22;10008;48.682;9.016;2022-09-01T09:16:47;19.80;99.90
3406;DHT22;10008;48.682;9.016;2022-09-01T09:21:47;19.60;99.90
3406;DHT22;10008;48.682;9.016;2022-09-01T09:29:49;19.70;99.90
3406;DHT22;10008;48.682;9.016;2022-09-01T09:32:17;19.90;99.90
3406;DHT22;10008;48.682;9.016;2022-09-01T09:34:43;20.20;99.90
3406;DHT22;10008;48.682;9.016;2022-09-01T09:37:29;20.10;99.90
3406;DHT22;10008;48.682;9.016;2022-09-01T09:40:22;20.20;99.90
3406;DHT22;10008;48.682;9.016;2022-09-01T09:45:31;20.30;99.90
3406;DHT22;10008;48.682;9.016;2022-09-01T09:48:08;20.50;99.90
3406;DHT22;10008;48.682;9.016;2022-09-01T09:50:39;20.50;99.90
3406;DHT22;10008;48.682;9.016;2022-09-01T09:53:27;20.40;99.90
3406;DHT22;10008;48.682;9.016;2022-09-01T09:58:40;20.60;99.90
3406;DHT22;10008;48.682;9.016;2022-09-01T10:01:13;20.50;99.90
3406;DHT22;10008;48.682;9.016;2022-09-01T10:03:50;20.50;99.90
3406;DHT22;10008;48.682;9.016;2022-09-01T10:06:37;20.30;99.90
3406;DHT22;10008;48.682;9.016;2022-09-01T10:09:09;20.30;99.90
3406;DHT22;10008;48.682;9.016;2022-09-01T10:11:45;20.80;99.90
3406;DHT22;10008;48.682;9.016;2022-09-01T10:14:15;21.30;99.90
3406;DHT22;10008;48.682;9.016;2022-09-01T10:16:42;21.60;99.90
3406;DHT22;10008;48.682;9.016;2022-09-01T10:19:11;21.50;99.90
3406;DHT22;10008;48.682;9.016;2022-09-01T10:21:41;21.60;99.90
3406;DHT22;10008;48.682;9.016;2022-09-01T10:24:28;22.10;99.90
3406;DHT22;10008;48.682;9.016;2022-09-01T10:26:59;22.70;99.90
3406;DHT22;10008;48.682;9.016;2022-09-01T10:32:53;23.10;99.90
3406;DHT22;10008;48.682;9.016;2022-09-01T10:35:28;23.00;99.90
3406;DHT22;10008;48.682;9.016;2022-09-01T10:38:05;23.10;99.90
3406;DHT22;10008;48.682;9.016;2022-09-01T10:43:50;22.40;99.00
3406;DHT22;10008;48.682;9.016;2022-09-01T10:48:48;22.20;99.90
3406;DHT22;10008;48.682;9.016;2022-09-01T10:53:41;21.80;99.50
3406;DHT22;10008;48.682;9.016;2022-09-01T10:56:09;21.80;99.90
3406;DHT22;10008;48.682;9.016;2022-09-01T11:09:46;21.90;99.90
3406;DHT22;10008;48.682;9.016;2022-09-01T11:14:54;21.70;99.90
3406;DHT22;10008;48.682;9.016;2022-09-01T11:20:46;21.50;99.90
3406;DHT22;10008;48.682;9.016;2022-09-01T11:28:00;22.10;99.30
3406;DHT22;10008;48.682;9.016;2022-09-01T11:30:46;22.20;98.80
3406;DHT22;10008;48.682;9.016;2022-09-01T11:33:44;22.10;99.00
3406;DHT22;10008;48.682;9.016;2022-09-01T11:36:35;22.30;99.10
3406;DHT22;10008;48.682;9.016;2022-09-01T11:44:34;22.90;97.30
3406;DHT22;10008;48.682;9.016;2022-09-01T11:47:05;22.80;97.00
3406;DHT22;10008;48.682;9.016;2022-09-01T11:49:34;22.90;97.40
3406;DHT22;10008;48.682;9.016;2022-09-01T11:52:02;23.00;96.90
3406;DHT22;10008;48.682;9.016;2022-09-01T11:54:36;23.20;96.30
3406;DHT22;10008;48.682;9.016;2022-09-01T11:59:46;23.60;95.60
3406;DHT22;10008;48.682;9.016;2022-09-01T12:02:20;23.20;95.30
3406;DHT22;10008;48.682;9.016;2022-09-01T12:04:48;22.80;96.40
3406;DHT22;10008;48.682;9.016;2022-09-01T12:07:43;22.40;96.90
3406;DHT22;10008;48.682;9.016;2022-09-01T12:10:16;22.50;97.70
3406;DHT22;10008;48.682;9.016;2022-09-01T12:12:43;22.70;96.90
3406;DHT22;10008;48.682;9.016;2022-09-01T12:15:23;22.40;96.40
3406;DHT22;10008;48.682;9.016;2022-09-01T12:17:50;22.20;96.80
3406;DHT22;10008;48.682;9.016;2022-09-01T12:20:29;22.20;96.70
3406;DHT22;10008;48.682;9.016;2022-09-01T12:22:57;22.40;96.70
3406;DHT22;10008;48.682;9.016;2022-09-01T12:25:33;22.80;96.70
3406;DHT22;10008;48.682;9.016;2022-09-01T12:28:01;23.00;95.40
3406;DHT22;10008;48.682;9.016;2022-09-01T12:30:28;22.90;94.90
3406;DHT22;10008;48.682;9.016;2022-09-01T12:32:54;23.00;95.30
3406;DHT22;10008;48.682;9.016;2022-09-01T12:35:24;22.90;95.30
3406;DHT22;10008;48.682;9.016;2022-09-01T12:37:51;22.90;95.50
3406;DHT22;10008;48.682;9.016;2022-09-01T12:40:33;22.80;94.10
3406;DHT22;10008;48.682;9.016;2022-09-01T12:43:00;22.60;94.80
3406;DHT22;10008;48.682;9.016;2022-09-01T12:45:45;22.40;95.40
3406;DHT22;10008;48.682;9.016;2022-09-01T12:48:34;22.40;96.60
3406;DHT22;10008;48.682;9.016;2022-09-01T12:51:03;22.40;96.30
3406;DHT22;10008;48.682;9.016;2022-09-01T12:53:32;22.30;96.70
3406;DHT22;10008;48.682;9.016;2022-09-01T12:56:03;22.30;96.60
3406;DHT22;10008;48.682;9.016;2022-09-01T12:58:29;22.50;96.50
3406;DHT22;10008;48.682;9.016;2022-09-01T13:01:00;22.90;96.70
3406;DHT22;10008;48.682;9.016;2022-09-01T13:03:28;23.30;96.20
3406;DHT22;10008;48.682;9.016;2022-09-01T13:05:56;23.40;96.30
3406;DHT22;10008;48.682;9.016;2022-09-01T13:08:31;23.70;95.40
3406;DHT22;10008;48.682;9.016;2022-09-01T13:11:03;23.60;95.00
3406;DHT22;10008;48.682;9.016;2022-09-01T13:13:29;23.80;96.00
3406;DHT22;10008;48.682;9.016;2022-09-01T13:15:58;24.10;95.20
3406;DHT22;10008;48.682;9.016;2022-09-01T13:18:27;24.40;94.80
3406;DHT22;10008;48.682;9.016;2022-09-01T13:20:55;24.70;94.30
3406;DHT22;10008;48.682;9.016;2022-09-01T13:23:21;24.90;93.80
3406;DHT22;10008;48.682;9.016;2022-09-01T13:25:47;24.70;93.60
3406;DHT22;10008;48.682;9.016;2022-09-01T13:28:15;24.30;93.90
3406;DHT22;10008;48.682;9.016;2022-09-01T13:30:43;24.00;94.10
3406;DHT22;10008;48.682;9.016;2022-09-01T13:33:09;23.80;94.90
3406;DHT22;10008;48.682;9.016;2022-09-01T13:35:37;23.70;94.90
3406;DHT22;10008;48.682;9.016;2022-09-01T13:38:03;23.50;95.30
3406;DHT22;10008;48.682;9.016;2022-09-01T13:40:29;23.40;94.90
3406;DHT22;10008;48.682;9.016;2022-09-01T13:42:55;23.10;94.80
3406;DHT22;10008;48.682;9.016;2022-09-01T13:45:22;22.90;95.10
3406;DHT22;10008;48.682;9.016;2022-09-01T13:47:49;22.70;95.50
3406;DHT22;10008;48.682;9.016;2022-09-01T13:50:19;22.60;95.60
3406;DHT22;10008;48.682;9.016;2022-09-01T13:52:48;22.30;95.70
3406;DHT22;10008;48.682;9.016;2022-09-01T13:55:25;22.10;96.10
3406;DHT22;10008;48.682;9.016;2022-09-01T13:57:51;22.00;96.60
3406;DHT22;10008;48.682;9.016;2022-09-01T14:00:20;22.10;96.70
3406;DHT22;10008;48.682;9.016;2022-09-01T14:02:50;22.30;96.70
3406;DHT22;10008;48.682;9.016;2022-09-01T14:05:26;22.40;96.00
3406;DHT22;10008;48.682;9.016;2022-09-01T14:07:53;22.70;96.70
3406;DHT22;10008;48.682;9.016;2022-09-01T14:10:20;23.10;95.80
3406;DHT22;10008;48.682;9.016;2022-09-01T14:12:46;23.40;95.70
3406;DHT22;10008;48.682;9.016;2022-09-01T14:15:13;23.60;95.00
3406;DHT22;10008;48.682;9.016;2022-09-01T14:17:40;23.70;94.10
3406;DHT22;10008;48.682;9.016;2022-09-01T14:20:10;23.70;94.10
3406;DHT22;10008;48.682;9.016;2022-09-01T14:22:38;23.70;93.80
3406;DHT22;10008;48.682;9.016;2022-09-01T14:25:07;23.60;94.00
3406;DHT22;10008;48.682;9.016;2022-09-01T14:27:33;23.60;93.90
3406;DHT22;10008;48.682;9.016;2022-09-01T14:29:59;23.60;94.10
3406;DHT22;10008;48.682;9.016;2022-09-01T14:32:25;23.70;94.40
3406;DHT22;10008;48.682;9.016;2022-09-01T14:34:55;23.80;94.70
3406;DHT22;10008;48.682;9.016;2022-09-01T14:37:22;24.00;94.40
3406;DHT22;10008;48.682;9.016;2022-09-01T14:39:52;24.10;94.30
3406;DHT22;10008;48.682;9.016;2022-09-01T14:42:20;24.20;93.00
3406;DHT22;10008;48.682;9.016;2022-09-01T14:44:46;24.20;92.20
3406;DHT22;10008;48.682;9.016;2022-09-01T14:47:13;24.20;92.20
3406;DHT22;10008;48.682;9.016;2022-09-01T14:49:39;24.00;92.00
3406;DHT22;10008;48.682;9.016;2022-09-01T14:52:06;24.00;92.40
3406;DHT22;10008;48.682;9.016;2022-09-01T14:54:37;23.90;92.80
3406;DHT22;10008;48.682;9.016;2022-09-01T14:57:04;23.90;92.60
3406;DHT22;10008;48.682;9.016;2022-09-01T14:59:31;24.00;92.90
3406;DHT22;10008;48.682;9.016;2022-09-01T15:01:57;24.10;92.00
3406;DHT22;10008;48.682;9.016;2022-09-01T15:04:23;24.00;92.40
3406;DHT22;10008;48.682;9.016;2022-09-01T15:06:49;24.20;92.30
3406;DHT22;10008;48.682;9.016;2022-09-01T15:09:14;24.20;91.70
3406;DHT22;10008;48.682;9.016;2022-09-01T15:11:41;24.20;91.90
3406;DHT22;10008;48.682;9.016;2022-09-01T15:14:07;24.00;92.10
3406;DHT22;10008;48.682;9.016;2022-09-01T15:16:36;24.00;92.80
3406;DHT22;10008;48.682;9.016;2022-09-01T15:19:12;24.00;92.90
3406;DHT22;10008;48.682;9.016;2022-09-01T15:21:39;24.00;92.60
3406;DHT22;10008;48.682;9.016;2022-09-01T15:24:06;24.20;92.80
3406;DHT22;10008;48.682;9.016;2022-09-01T15:26:33;24.10;92.00
3406;DHT22;10008;48.682;9.016;2022-09-01T15:29:00;24.00;92.10
3406;DHT22;10008;48.682;9.016;2022-09-01T15:31:29;24.00;92.10
3406;DHT22;10008;48.682;9.016;2022-09-01T15:33:59;24.10;92.50
3406;DHT22;10008;48.682;9.016;2022-09-01T15:36:27;24.10;92.50
3406;DHT22;10008;48.682;9.016;2022-09-01T15:38:54;23.90;92.60
3406;DHT22;10008;48.682;9.016;2022-09-01T15:41:26;23.80;92.60
3406;DHT22;10008;48.682;9.016;2022-09-01T15:43:53;23.70;92.70
3406;DHT22;10008;48.682;9.016;2022-09-01T15:46:20;23.70;92.90
3406;DHT22;10008;48.682;9.016;2022-09-01T15:48:46;23.70;92.20
3406;DHT22;10008;48.682;9.016;2022-09-01T15:53:55;23.40;91.80
3406;DHT22;10008;48.682;9.016;2022-09-01T15:56:21;23.40;93.20
3406;DHT22;10008;48.682;9.016;2022-09-01T15:58:48;23.60;91.60
3406;DHT22;10008;48.682;9.016;2022-09-01T16:01:16;23.70;91.50
3406;DHT22;10008;48.682;9.016;2022-09-01T16:03:42;23.70;91.80
3406;DHT22;10008;48.682;9.016;2022-09-01T16:06:08;23.70;91.80
3406;DHT22;10008;48.682;9.016;2022-09-01T16:08:34;23.60;92.10
3406;DHT22;10008;48.682;9.016;2022-09-01T16:11:04;23.70;92.10
3406;DHT22;10008;48.682;9.016;2022-09-01T16:13:38;23.70;92.30
3406;DHT22;10008;48.682;9.016;2022-09-01T16:24:18;22.90;93.00
3406;DHT22;10008;48.682;9.016;2022-09-01T16:26:46;22.70;94.10
3406;DHT22;10008;48.682;9.016;2022-09-01T16:29:27;22.60;94.10
3406;DHT22;10008;48.682;9.016;2022-09-01T16:31:56;22.40;93.60
3406;DHT22;10008;48.682;9.016;2022-09-01T16:34:22;22.20;93.80
3406;DHT22;10008;48.682;9.016;2022-09-01T16:39:33;22.00;94.20
3406;DHT22;10008;48.682;9.016;2022-09-01T16:47:15;21.80;95.00
3406;DHT22;10008;48.682;9.016;2022-09-01T16:49:57;21.70;94.90
3406;DHT22;10008;48.682;9.016;2022-09-01T16:55:24;21.60;95.50
3406;DHT22;10008;48.682;9.016;2022-09-01T17:00:50;21.50;95.40
3406;DHT22;10008;48.682;9.016;2022-09-01T17:03:33;21.40;95.50
3406;DHT22;10008;48.682;9.016;2022-09-01T17:06:02;21.40;95.60
3406;DHT22;10008;48.682;9.016;2022-09-01T17:09:10;21.30;95.70
3406;DHT22;10008;48.682;9.016;2022-09-01T17:11:57;21.20;95.70
3406;DHT22;10008;48.682;9.016;2022-09-01T17:14:47;21.20;95.90
3406;DHT22;10008;48.682;9.016;2022-09-01T17:17:19;21.10;96.10
3406;DHT22;10008;48.682;9.016;2022-09-01T17:19:45;21.10;96.30
3406;DHT22;10008;48.682;9.016;2022-09-01T17:22:16;21.10;96.20
3406;DHT22;10008;48.682;9.016;2022-09-01T17:24:47;21.00;96.60
3406;DHT22;10008;48.682;9.016;2022-09-01T17:27:26;21.00;96.40
3406;DHT22;10008;48.682;9.016;2022-09-01T17:29:55;20.90;96.50
3406;DHT22;10008;48.682;9.016;2022-09-01T17:43:08;20.50;97.80
3406;DHT22;10008;48.682;9.016;2022-09-01T17:49:02;20.30;98.00
3406;DHT22;10008;48.682;9.016;2022-09-01T17:52:00;20.20;98.20
3406;DHT22;10008;48.682;9.016;2022-09-01T18:05:18;19.80;99.20
3406;DHT22;10008;48.682;9.016;2022-09-01T18:11:04;19.70;99.50